createdAt,value
2018-12-03T00:01:31.736Z,11.10
2018-12-03T00:04:06.448Z,11.10
2018-12-03T00:06:34.987Z,11.00
2018-12-03T00:09:04.152Z,11.10
2018-12-03T00:11:32.440Z,11.00
2018-12-03T00:14:00.784Z,11.00
2018-12-03T00:16:29.668Z,11.00
2018-12-03T00:18:58.067Z,11.00
2018-12-03T00:21:26.522Z,11.00
2018-12-03T00:23:55.004Z,11.00
2018-12-03T00:26:23.469Z,10.90
2018-12-03T00:28:51.879Z,10.90
2018-12-03T00:31:20.277Z,10.90
2018-12-03T00:33:48.708Z,10.90
2018-12-03T00:36:17.128Z,10.90
2018-12-03T00:38:45.555Z,10.90
2018-12-03T00:41:14.025Z,10.90
2018-12-03T00:43:42.406Z,10.90
2018-12-03T00:46:10.711Z,10.90
2018-12-03T00:48:39.059Z,10.90
2018-12-03T00:51:07.607Z,10.90
2018-12-03T00:53:36.055Z,10.90
2018-12-03T00:56:04.397Z,10.90
2018-12-03T00:58:32.777Z,10.90
2018-12-03T01:01:01.112Z,10.90
2018-12-03T01:03:29.451Z,10.90
2018-12-03T01:05:57.846Z,10.90
2018-12-03T01:08:26.243Z,10.90
2018-12-03T01:10:54.643Z,10.90
2018-12-03T01:13:23.024Z,11.00
2018-12-03T01:15:51.517Z,11.00
2018-12-03T01:18:19.880Z,11.00
2018-12-03T01:20:48.206Z,11.00
2018-12-03T01:23:16.536Z,11.00
2018-12-03T01:25:44.945Z,10.90
2018-12-03T01:28:13.239Z,11.00
2018-12-03T01:30:41.655Z,11.00
2018-12-03T01:33:09.986Z,11.00
2018-12-03T01:35:38.341Z,11.00
2018-12-03T01:38:06.967Z,11.00
2018-12-03T01:40:35.357Z,11.00
2018-12-03T01:43:03.743Z,11.00
2018-12-03T01:45:32.115Z,11.00
2018-12-03T01:48:00.546Z,11.00
2018-12-03T01:50:28.855Z,11.00
2018-12-03T01:52:57.203Z,11.00
2018-12-03T01:55:25.666Z,11.00
2018-12-03T01:57:54.112Z,11.00
2018-12-03T02:00:22.527Z,11.00
2018-12-03T02:02:50.895Z,11.00
2018-12-03T02:05:19.266Z,11.00
2018-12-03T02:07:47.593Z,11.00
2018-12-03T02:10:16.284Z,11.00
2018-12-03T02:12:44.643Z,11.10
2018-12-03T02:15:14.065Z,11.00
2018-12-03T02:17:42.811Z,11.10
2018-12-03T02:20:16.247Z,11.10
2018-12-03T02:22:44.602Z,11.10
2018-12-03T02:25:13.119Z,11.10
2018-12-03T02:27:41.614Z,11.10
2018-12-03T02:30:17.647Z,11.00
2018-12-03T02:32:46.052Z,11.00
2018-12-03T02:35:14.835Z,11.10
2018-12-03T02:37:43.271Z,11.10
2018-12-03T02:40:14.807Z,11.10
2018-12-03T02:42:43.197Z,11.00
2018-12-03T02:45:12.499Z,11.10
2018-12-03T02:47:40.938Z,11.10
2018-12-03T02:50:11.472Z,11.10
2018-12-03T02:52:39.960Z,11.00
2018-12-03T02:55:10.381Z,11.10
2018-12-03T02:57:38.793Z,11.10
2018-12-03T03:00:13.321Z,11.10
2018-12-03T03:02:42.200Z,11.10
2018-12-03T03:05:14.676Z,11.00
2018-12-03T03:07:43.358Z,11.10
2018-12-03T03:10:13.669Z,11.10
2018-12-03T03:12:42.023Z,11.10
2018-12-03T03:15:11.807Z,11.10
2018-12-03T03:17:40.183Z,11.10
2018-12-03T03:20:09.843Z,11.20
2018-12-03T03:22:38.152Z,11.10
2018-12-03T03:25:07.754Z,11.20
2018-12-03T03:27:36.078Z,11.20
2018-12-03T03:30:06.889Z,11.20
2018-12-03T03:32:35.256Z,11.20
2018-12-03T03:35:03.548Z,11.20
2018-12-03T03:37:31.893Z,11.20
2018-12-03T03:40:00.182Z,11.20
2018-12-03T03:42:28.494Z,11.20
2018-12-03T03:44:56.795Z,11.20
2018-12-03T03:47:25.075Z,11.20
2018-12-03T03:49:53.536Z,11.20
2018-12-03T03:52:21.809Z,11.20
2018-12-03T03:54:50.084Z,11.20
2018-12-03T03:57:18.369Z,11.20
2018-12-03T03:59:46.646Z,11.20
2018-12-03T04:02:14.935Z,11.20
2018-12-03T04:04:43.203Z,11.20
2018-12-03T04:07:11.520Z,11.30
2018-12-03T04:09:39.953Z,11.20
2018-12-03T04:12:08.235Z,11.20
2018-12-03T04:14:36.556Z,11.30
2018-12-03T04:17:04.955Z,11.30
2018-12-03T04:19:33.268Z,11.30
2018-12-03T04:22:01.590Z,11.30
2018-12-03T04:24:29.901Z,11.30
2018-12-03T04:26:58.177Z,11.30
2018-12-03T04:29:26.520Z,11.30
2018-12-03T04:31:55.103Z,11.30
2018-12-03T04:34:23.400Z,11.30
2018-12-03T04:36:51.715Z,11.30
2018-12-03T04:39:20.013Z,11.30
2018-12-03T04:41:48.313Z,11.30
2018-12-03T04:44:16.605Z,11.30
2018-12-03T04:46:44.931Z,11.30
2018-12-03T04:49:13.196Z,11.20
2018-12-03T04:51:41.532Z,11.20
2018-12-03T04:54:09.800Z,11.30
2018-12-03T04:56:38.092Z,11.30
2018-12-03T04:59:06.384Z,11.30
2018-12-03T05:01:34.927Z,11.30
2018-12-03T05:04:03.208Z,11.30
2018-12-03T05:06:31.538Z,11.30
2018-12-03T05:08:59.792Z,11.30
2018-12-03T05:11:28.051Z,11.30
2018-12-03T05:13:56.324Z,11.30
2018-12-03T05:16:24.604Z,11.40
2018-12-03T05:18:53.019Z,11.30
2018-12-03T05:21:21.324Z,11.40
2018-12-03T05:23:49.588Z,11.40
2018-12-03T05:26:17.918Z,11.40
2018-12-03T05:28:46.388Z,11.40
2018-12-03T05:31:14.668Z,11.40
2018-12-03T05:33:43.113Z,11.40
2018-12-03T05:36:11.443Z,11.40
2018-12-03T05:38:39.762Z,11.40
2018-12-03T05:41:08.033Z,11.40
2018-12-03T05:43:36.377Z,11.50
2018-12-03T05:46:04.688Z,11.50
2018-12-03T05:48:33.012Z,11.50
2018-12-03T05:51:01.292Z,11.50
2018-12-03T05:53:29.557Z,11.50
2018-12-03T05:55:57.855Z,11.50
2018-12-03T05:58:26.151Z,11.50
2018-12-03T06:00:54.517Z,11.60
2018-12-03T06:03:23.166Z,11.60
2018-12-03T06:05:51.459Z,11.60
2018-12-03T06:08:19.735Z,11.60
2018-12-03T06:10:48.068Z,11.60
2018-12-03T06:13:16.317Z,11.60
2018-12-03T06:15:44.588Z,11.60
2018-12-03T06:18:12.894Z,11.70
2018-12-03T06:20:41.236Z,11.70
2018-12-03T06:23:09.826Z,11.70
2018-12-03T06:25:38.112Z,11.70
2018-12-03T06:28:06.635Z,11.70
2018-12-03T06:30:34.887Z,11.70
2018-12-03T06:33:03.197Z,11.70
2018-12-03T06:35:31.510Z,11.70
2018-12-03T06:38:00.027Z,11.70
2018-12-03T06:40:30.373Z,11.70
2018-12-03T06:42:58.684Z,11.70
2018-12-03T06:45:27.460Z,11.70
2018-12-03T06:48:00.901Z,11.60
2018-12-03T06:50:29.211Z,11.70
2018-12-03T06:52:57.452Z,11.70
2018-12-03T06:55:25.712Z,11.70
2018-12-03T06:57:54.138Z,11.70
2018-12-03T07:00:23.583Z,11.70
2018-12-03T07:02:51.865Z,11.70
2018-12-03T07:05:20.201Z,11.70
2018-12-03T07:07:49.921Z,11.70
2018-12-03T07:10:19.339Z,11.70
2018-12-03T07:12:49.948Z,11.70
2018-12-03T07:15:21.032Z,11.70
2018-12-03T07:17:50.476Z,11.60
2018-12-03T07:20:18.749Z,11.70
2018-12-03T07:22:46.979Z,11.60
2018-12-03T07:25:15.423Z,11.60
2018-12-03T07:27:43.688Z,11.60
2018-12-03T07:30:15.153Z,11.60
2018-12-03T07:32:43.847Z,11.60
2018-12-03T07:35:12.138Z,11.60
2018-12-03T07:37:40.391Z,11.60
2018-12-03T07:40:09.863Z,11.50
2018-12-03T07:42:38.199Z,11.50
2018-12-03T07:45:10.820Z,11.50
2018-12-03T07:47:39.072Z,11.50
2018-12-03T07:50:11.530Z,11.50
2018-12-03T07:52:39.914Z,11.50
2018-12-03T07:55:09.720Z,11.50
2018-12-03T07:57:38.772Z,11.50
2018-12-03T08:00:10.897Z,11.50
2018-12-03T08:02:39.218Z,11.50
2018-12-03T08:05:08.941Z,11.50
2018-12-03T08:07:37.260Z,11.40
2018-12-03T08:10:09.381Z,11.40
2018-12-03T08:12:37.709Z,11.40
2018-12-03T08:15:12.871Z,11.40
2018-12-03T08:17:43.664Z,11.30
2018-12-03T08:20:15.913Z,11.30
2018-12-03T08:22:47.300Z,11.30
2018-12-03T08:25:16.096Z,11.30
2018-12-03T08:27:44.364Z,11.20
2018-12-03T08:30:12.972Z,11.20
2018-12-03T08:32:41.476Z,11.20
2018-12-03T08:35:14.128Z,11.20
2018-12-03T08:37:42.518Z,11.20
2018-12-03T08:40:17.132Z,11.30
2018-12-03T08:42:47.710Z,11.30
2018-12-03T08:45:16.311Z,11.30
2018-12-03T08:47:44.880Z,11.30
2018-12-03T08:50:16.284Z,11.30
2018-12-03T08:52:44.513Z,11.30
2018-12-03T08:55:12.840Z,11.30
2018-12-03T08:57:41.143Z,11.30
2018-12-03T09:01:15.420Z,11.30
2018-12-03T09:03:45.963Z,11.30
2018-12-03T09:06:14.441Z,11.30
2018-12-03T09:08:47.840Z,11.30
2018-12-03T09:11:16.740Z,11.30
2018-12-03T09:13:45.047Z,11.30
2018-12-03T09:16:13.597Z,11.30
2018-12-03T09:18:41.932Z,11.30
2018-12-03T09:21:13.195Z,11.30
2018-12-03T09:23:42.604Z,11.30
2018-12-03T09:26:11.571Z,11.30
2018-12-03T09:28:39.904Z,11.30
2018-12-03T09:31:08.411Z,11.30
2018-12-03T09:33:36.787Z,11.30
2018-12-03T09:36:05.920Z,11.30
2018-12-03T09:38:47.070Z,11.30
2018-12-03T09:41:15.416Z,11.30
2018-12-03T09:43:44.453Z,11.30
2018-12-03T09:46:12.851Z,11.30
2018-12-03T09:48:41.217Z,11.30
2018-12-03T09:51:10.629Z,11.30
2018-12-03T09:53:39.396Z,11.40
2018-12-03T09:56:07.829Z,11.50
2018-12-03T09:58:36.239Z,11.50
2018-12-03T10:01:04.803Z,11.50
2018-12-03T10:03:38.820Z,11.50
2018-12-03T10:06:10.875Z,11.50
2018-12-03T10:08:39.137Z,11.50
2018-12-03T10:11:07.487Z,11.60
2018-12-03T10:13:35.804Z,11.60
2018-12-03T10:16:04.088Z,11.60
2018-12-03T10:18:32.495Z,11.60
2018-12-03T10:21:01.538Z,11.60
2018-12-03T10:23:29.875Z,11.50
2018-12-03T10:25:59.628Z,11.50
2018-12-03T10:28:28.500Z,11.50
2018-12-03T10:30:57.904Z,11.50
2018-12-03T10:33:29.016Z,11.50
2018-12-03T10:35:58.672Z,11.50
2018-12-03T10:38:28.117Z,11.50
2018-12-03T10:40:59.408Z,11.50
2018-12-03T10:43:27.679Z,11.50
2018-12-03T10:45:56.002Z,11.50
2018-12-03T10:48:24.271Z,11.50
2018-12-03T10:50:52.596Z,11.40
2018-12-03T10:53:25.295Z,11.40
2018-12-03T10:55:53.644Z,11.40
2018-12-03T10:58:22.013Z,11.40
2018-12-03T11:01:00.443Z,11.40
2018-12-03T11:03:34.101Z,11.40
2018-12-03T11:06:08.797Z,11.40
2018-12-03T11:08:37.260Z,11.40
2018-12-03T11:11:05.799Z,11.40
2018-12-03T11:13:34.148Z,11.40
2018-12-03T11:16:02.503Z,11.40
2018-12-03T11:18:36.391Z,11.40
2018-12-03T11:21:06.077Z,11.40
2018-12-03T11:23:34.827Z,11.40
2018-12-03T11:26:03.075Z,11.40
2018-12-03T11:28:38.159Z,11.30
2018-12-03T11:31:08.864Z,11.30
2018-12-03T11:33:37.154Z,11.30
2018-12-03T11:36:06.954Z,11.30
2018-12-03T11:38:40.638Z,11.30
2018-12-03T11:41:08.951Z,11.30
2018-12-03T11:43:37.216Z,11.30
2018-12-03T11:46:06.183Z,11.30
2018-12-03T11:48:40.766Z,11.40
2018-12-03T11:51:09.083Z,11.30
2018-12-03T11:53:37.420Z,11.40
2018-12-03T11:56:06.014Z,11.40
2018-12-03T11:58:34.548Z,11.40
2018-12-03T12:01:02.861Z,11.40
2018-12-03T12:03:31.167Z,11.40
2018-12-03T12:05:59.691Z,11.40
2018-12-03T12:08:28.693Z,11.40
2018-12-03T12:10:57.031Z,11.40
2018-12-03T12:13:54.239Z,11.40
2018-12-03T12:16:21.769Z,11.40
2018-12-03T12:18:49.238Z,11.40
2018-12-03T12:21:16.813Z,11.40
2018-12-03T12:23:44.270Z,11.30
2018-12-03T12:26:11.734Z,11.30
2018-12-03T12:28:39.265Z,11.30
2018-12-03T12:31:11.104Z,11.30
2018-12-03T12:33:38.560Z,11.30
2018-12-03T12:36:06.068Z,11.30
2018-12-03T12:38:33.576Z,11.30
2018-12-03T12:41:01.048Z,11.30
2018-12-03T12:43:29.457Z,11.40
2018-12-03T12:45:56.979Z,11.40
2018-12-03T12:48:24.440Z,11.40
2018-12-03T12:50:51.907Z,11.40
2018-12-03T12:53:19.467Z,11.30
2018-12-03T12:55:46.979Z,11.40
2018-12-03T12:58:14.449Z,11.40
2018-12-03T13:00:41.906Z,11.30
2018-12-03T13:03:09.399Z,11.30
2018-12-03T13:05:36.941Z,11.40
2018-12-03T13:08:04.648Z,11.40
2018-12-03T13:10:32.209Z,11.40
2018-12-03T13:12:59.668Z,11.40
2018-12-03T13:15:27.131Z,11.40
2018-12-03T13:17:54.628Z,11.30
2018-12-03T13:20:22.194Z,11.30
2018-12-03T13:22:49.804Z,11.30
2018-12-03T13:25:17.245Z,11.30
2018-12-03T13:27:44.761Z,11.30
2018-12-03T13:30:13.629Z,11.20
2018-12-03T13:32:41.368Z,11.20
2018-12-03T13:35:08.926Z,11.20
2018-12-03T13:37:36.399Z,11.20
2018-12-03T13:40:05.997Z,11.20
2018-12-03T13:42:33.431Z,11.20
2018-12-03T13:45:00.880Z,11.20
2018-12-03T13:47:28.367Z,11.20
2018-12-03T13:49:55.820Z,11.20
2018-12-03T13:52:23.288Z,11.20
2018-12-03T13:54:50.791Z,11.20
2018-12-03T13:57:18.285Z,11.20
2018-12-03T13:59:45.776Z,11.20
2018-12-03T14:02:13.228Z,11.20
2018-12-03T14:04:40.738Z,11.30
2018-12-03T14:07:08.239Z,11.30
2018-12-03T14:09:35.716Z,11.20
2018-12-03T14:12:03.887Z,11.20
2018-12-03T14:14:31.403Z,11.20
2018-12-03T14:16:58.921Z,11.20
2018-12-03T14:19:26.428Z,11.20
2018-12-03T14:21:54.007Z,11.20
2018-12-03T14:24:21.541Z,11.20
2018-12-03T14:26:49.065Z,11.20
2018-12-03T14:29:16.548Z,11.20
2018-12-03T14:31:43.984Z,11.20
2018-12-03T14:34:15.338Z,11.10
2018-12-03T14:36:42.783Z,11.10
2018-12-03T14:39:10.246Z,11.10
2018-12-03T14:41:37.684Z,11.00
2018-12-03T14:44:05.150Z,11.00
2018-12-03T14:46:32.600Z,11.00
2018-12-03T14:49:00.078Z,11.00
2018-12-03T14:51:27.530Z,11.00
2018-12-03T14:53:54.959Z,10.90
2018-12-03T14:56:22.401Z,10.90
2018-12-03T14:58:49.872Z,10.90
2018-12-03T15:01:17.308Z,10.90
2018-12-03T15:03:44.781Z,10.90
2018-12-03T15:06:12.247Z,10.90
2018-12-03T15:08:39.686Z,10.80
2018-12-03T15:11:07.127Z,10.80
2018-12-03T15:13:34.612Z,10.80
2018-12-03T15:16:02.082Z,10.80
2018-12-03T15:18:29.536Z,10.80
2018-12-03T15:20:56.973Z,10.80
2018-12-03T15:23:24.435Z,10.80
2018-12-03T15:25:52.030Z,10.70
2018-12-03T15:28:19.556Z,10.70
2018-12-03T15:30:47.017Z,10.70
2018-12-03T15:33:14.524Z,10.70
2018-12-03T15:35:42.075Z,10.70
2018-12-03T15:38:09.608Z,10.70
2018-12-03T15:40:37.051Z,10.70
2018-12-03T15:43:04.522Z,10.70
2018-12-03T15:45:32.004Z,10.70
2018-12-03T15:47:59.469Z,10.70
2018-12-03T15:50:26.929Z,10.70
2018-12-03T15:52:54.492Z,10.60
2018-12-03T15:55:21.941Z,10.70
2018-12-03T15:57:49.520Z,10.70
2018-12-03T16:00:17.032Z,10.70
2018-12-03T16:02:44.472Z,10.70
2018-12-03T16:05:11.923Z,10.70
2018-12-03T16:07:39.388Z,10.70
2018-12-03T16:10:07.673Z,10.70
2018-12-03T16:12:35.160Z,10.70
2018-12-03T16:15:02.689Z,10.70
2018-12-03T16:17:30.181Z,10.70
2018-12-03T16:19:57.637Z,10.70
2018-12-03T16:22:25.097Z,10.70
2018-12-03T16:24:52.526Z,10.70
2018-12-03T16:27:19.984Z,10.70
2018-12-03T16:29:47.448Z,10.70
2018-12-03T16:32:14.907Z,10.70
2018-12-03T16:34:42.341Z,10.70
2018-12-03T16:37:09.925Z,10.70
2018-12-03T16:39:37.380Z,10.70
2018-12-03T16:42:04.896Z,10.70
2018-12-03T16:44:32.337Z,10.70
2018-12-03T16:46:59.840Z,10.60
2018-12-03T16:49:27.281Z,10.70
2018-12-03T16:51:54.736Z,10.60
2018-12-03T16:54:22.220Z,10.60
2018-12-03T16:56:49.672Z,10.60
2018-12-03T16:59:17.144Z,10.60
2018-12-03T17:01:44.624Z,10.60
2018-12-03T17:04:12.090Z,10.60
2018-12-03T17:06:39.671Z,10.60
2018-12-03T17:09:07.156Z,10.70
2018-12-03T17:11:34.767Z,10.70
2018-12-03T17:14:02.215Z,10.70
2018-12-03T17:16:29.664Z,10.70
2018-12-03T17:18:57.131Z,10.70
2018-12-03T17:21:24.668Z,10.70
2018-12-03T17:23:52.227Z,10.70
2018-12-03T17:26:19.666Z,10.70
2018-12-03T17:28:47.204Z,10.70
2018-12-03T17:31:14.667Z,10.70
2018-12-03T17:33:42.135Z,10.70
2018-12-03T17:36:09.652Z,10.70
2018-12-03T17:38:37.099Z,10.70
2018-12-03T17:41:04.623Z,10.70
2018-12-03T17:43:32.063Z,10.70
2018-12-03T17:45:59.504Z,10.70
2018-12-03T17:48:27.023Z,10.60
2018-12-03T17:50:54.545Z,10.60
2018-12-03T17:53:22.088Z,10.60
2018-12-03T17:55:49.587Z,10.50
2018-12-03T17:58:17.019Z,10.50
2018-12-03T18:00:44.465Z,10.50
2018-12-03T18:03:11.976Z,10.40
2018-12-03T18:05:39.435Z,10.40
2018-12-03T18:08:06.967Z,10.30
2018-12-03T18:10:34.454Z,10.20
2018-12-03T18:13:01.905Z,10.20
2018-12-03T18:15:29.369Z,10.10
2018-12-03T18:17:56.799Z,10.00
2018-12-03T18:20:24.405Z,10.00
2018-12-03T18:22:51.881Z,9.90
2018-12-03T18:25:19.313Z,9.90
2018-12-03T18:27:46.787Z,9.90
2018-12-03T18:30:14.217Z,9.80
2018-12-03T18:32:41.647Z,9.70
2018-12-03T18:35:09.099Z,9.70
2018-12-03T18:37:36.532Z,9.60
2018-12-03T18:40:04.901Z,9.60
2018-12-03T18:42:32.351Z,9.60
2018-12-03T18:44:59.943Z,9.50
2018-12-03T18:47:27.400Z,9.50
2018-12-03T18:49:54.844Z,9.50
2018-12-03T18:52:22.304Z,9.60
2018-12-03T18:54:49.747Z,9.50
2018-12-03T18:57:17.187Z,9.60
2018-12-03T18:59:44.655Z,9.60
2018-12-03T19:02:12.153Z,9.60
2018-12-03T19:04:39.632Z,9.50
2018-12-03T19:07:07.099Z,9.60
2018-12-03T19:09:34.574Z,9.50
2018-12-03T19:12:02.152Z,9.50
2018-12-03T19:14:29.587Z,9.50
2018-12-03T19:16:57.053Z,9.50
2018-12-03T19:19:24.494Z,9.50
2018-12-03T19:21:52.613Z,9.40
2018-12-03T19:24:20.376Z,9.40
2018-12-03T19:26:47.922Z,9.40
2018-12-03T19:29:15.480Z,9.40
2018-12-03T19:31:42.947Z,9.40
2018-12-03T19:34:10.400Z,9.40
2018-12-03T19:36:38.005Z,9.40
2018-12-03T19:39:06.063Z,9.40
2018-12-03T19:41:33.500Z,9.40
2018-12-03T19:44:00.956Z,9.50
2018-12-03T19:46:28.440Z,9.50
2018-12-03T19:48:55.933Z,9.50
2018-12-03T19:51:23.449Z,9.50
2018-12-03T19:53:50.964Z,9.50
2018-12-03T19:56:18.452Z,9.50
2018-12-03T19:58:45.991Z,9.50
2018-12-03T20:01:13.452Z,9.50
2018-12-03T20:03:40.948Z,9.50
2018-12-03T20:06:08.456Z,9.50
2018-12-03T20:08:35.929Z,9.50
2018-12-03T20:11:03.624Z,9.50
2018-12-03T20:13:31.128Z,9.50
2018-12-03T20:15:58.678Z,9.50
2018-12-03T20:18:26.256Z,9.50
2018-12-03T20:20:53.760Z,9.50
2018-12-03T20:23:21.220Z,9.60
2018-12-03T20:25:48.757Z,9.60
2018-12-03T20:28:16.312Z,9.60
2018-12-03T20:30:44.364Z,9.60
2018-12-03T20:33:12.202Z,9.60
2018-12-03T20:35:39.909Z,9.60
2018-12-03T20:38:07.361Z,9.60
2018-12-03T20:40:35.063Z,9.60
2018-12-03T20:43:02.621Z,9.60
2018-12-03T20:45:36.577Z,9.60
2018-12-03T20:48:05.348Z,9.60
2018-12-03T20:50:33.051Z,9.60
2018-12-03T20:53:00.493Z,9.60
2018-12-03T20:55:27.997Z,9.60
2018-12-03T20:57:55.455Z,9.60
2018-12-03T21:00:22.972Z,9.60
2018-12-03T21:02:50.412Z,9.60
2018-12-03T21:05:17.900Z,9.60
2018-12-03T21:07:45.378Z,9.60
2018-12-03T21:10:12.897Z,9.60
2018-12-03T21:12:40.363Z,9.60
2018-12-03T21:15:07.804Z,9.60
2018-12-03T21:17:35.299Z,9.60
2018-12-03T21:20:05.364Z,9.60
2018-12-03T21:22:32.840Z,9.60
2018-12-03T21:25:00.567Z,9.60
2018-12-03T21:27:28.203Z,9.60
2018-12-03T21:29:55.746Z,9.60
2018-12-03T21:32:23.245Z,9.60
2018-12-03T21:34:50.728Z,9.60
2018-12-03T21:37:18.184Z,9.60
2018-12-03T21:39:48.054Z,9.60
2018-12-03T21:42:15.134Z,9.60
2018-12-03T21:44:42.580Z,9.50
2018-12-03T21:47:10.975Z,9.40
2018-12-03T21:49:38.442Z,9.30
2018-12-03T21:52:05.890Z,9.20
2018-12-03T21:54:33.321Z,9.10
2018-12-03T21:57:00.829Z,9.00
2018-12-03T21:59:28.266Z,8.90
2018-12-03T22:01:55.711Z,8.90
2018-12-03T22:04:23.185Z,8.70
2018-12-03T22:06:50.665Z,8.60
2018-12-03T22:09:18.114Z,8.50
2018-12-03T22:11:45.657Z,8.40
2018-12-03T22:14:13.088Z,8.40
2018-12-03T22:16:40.536Z,8.30
2018-12-03T22:19:07.964Z,8.30
2018-12-03T22:21:35.436Z,8.20
2018-12-03T22:24:02.876Z,8.20
2018-12-03T22:26:30.412Z,8.10
2018-12-03T22:28:57.874Z,8.10
2018-12-03T22:31:25.317Z,8.00
2018-12-03T22:33:52.783Z,8.00
2018-12-03T22:36:20.229Z,7.90
2018-12-03T22:38:47.692Z,7.90
2018-12-03T22:41:15.157Z,7.80
2018-12-03T22:43:42.632Z,7.80
2018-12-03T22:46:10.084Z,7.70
2018-12-03T22:48:37.589Z,7.70
2018-12-03T22:51:05.149Z,7.70
2018-12-03T22:53:32.608Z,7.70
2018-12-03T22:56:00.128Z,7.60
2018-12-03T22:58:27.571Z,7.60
2018-12-03T23:00:58.944Z,7.50
2018-12-03T23:03:26.531Z,7.50
2018-12-03T23:05:53.988Z,7.50
2018-12-03T23:08:21.425Z,7.40
2018-12-03T23:10:48.881Z,7.40
2018-12-03T23:13:16.412Z,7.40
2018-12-03T23:15:43.884Z,7.30
2018-12-03T23:18:11.369Z,7.30
2018-12-03T23:20:38.816Z,7.20
2018-12-03T23:23:06.256Z,7.20
2018-12-03T23:25:33.719Z,7.20
2018-12-03T23:28:01.183Z,7.10
2018-12-03T23:30:28.623Z,7.10
2018-12-03T23:32:56.059Z,7.10
2018-12-03T23:35:23.529Z,7.10
2018-12-03T23:37:50.956Z,7.00
2018-12-03T23:40:18.391Z,7.00
2018-12-03T23:42:45.848Z,7.00
2018-12-03T23:45:13.285Z,6.90
2018-12-03T23:47:40.752Z,6.90
2018-12-03T23:50:08.296Z,6.90
2018-12-03T23:52:35.764Z,6.90
2018-12-03T23:55:03.287Z,6.90
2018-12-03T23:57:30.718Z,6.80
2018-12-03T23:59:58.164Z,6.80
